<?xml version="1.0" encoding="UTF-8"?>
<gpx version="1.1" creator="https://www.youtrack.es" xsi:schemaLocation="http://www.topografix.com/GPX/1/1 http://www.topografix.com/GPX/1/1/gpx.xsd http://www.garmin.com/xmlschemas/GpxExtensions/v3 http://www.garmin.com/xmlschemas/GpxExtensionsv3.xsd http://www.garmin.com/xmlschemas/TrackPointExtension/v1 http://www.garmin.com/xmlschemas/TrackPointExtensionv1.xsd" xmlns:gpxtpx="http://www.garmin.com/xmlschemas/TrackPointExtension/v1" xmlns:gpxx="http://www.garmin.com/xmlschemas/GpxExtensions/v3" xmlns:xsi="http://www.w3.org/2001/XMLSchema-instance">
  <metadata>
    <link href="https://www.youtrack.es">
      <text>YouTrack.es</text>
    </link>
    <time>2026-05-08T14:54:44Z</time>
  </metadata>
  <wpt lat="40.8157" lon="-3.95761">
    <ele>1825.8</ele>
    <time>2018-05-12T09:39:12Z</time>
    <name>refugio</name>
  </wpt>
  <wpt lat="40.7671" lon="-3.96862">
    <ele>2217.1</ele>
    <time>2018-05-12T09:36:22Z</time>
    <name>Maliciosa</name>
  </wpt>
  <wpt lat="40.796" lon="-3.93847">
    <ele>2370</ele>
    <time>2018-05-12T09:38:35Z</time>
    <name>Hierro Menor</name>
  </wpt>
  <wpt lat="40.7847" lon="-3.98013">
    <ele>2260.4</ele>
    <time>2018-05-12T09:37:03Z</time>
    <name>Bola del Mundo</name>
  </wpt>
  <wpt lat="40.7994" lon="-3.93298">
    <ele>2377.3</ele>
    <time>2018-05-12T09:37:34Z</time>
    <name>Hierro Mayor</name>
  </wpt>
  <wpt lat="40.8157" lon="-3.95761">
    <ele>1825.8</ele>
    <time>2018-05-12T09:39:12Z</time>
    <name>refugio</name>
  </wpt>
  <wpt lat="40.7671" lon="-3.96862">
    <ele>2217.1</ele>
    <time>2018-05-12T09:36:22Z</time>
    <name>Maliciosa</name>
  </wpt>
  <wpt lat="40.796" lon="-3.93847">
    <ele>2370</ele>
    <time>2018-05-12T09:38:35Z</time>
    <name>Hierro Menor</name>
  </wpt>
  <wpt lat="40.7994" lon="-3.93298">
    <ele>2377.3</ele>
    <time>2018-05-12T09:37:34Z</time>
    <name>Hierro Mayor</name>
  </wpt>
  <wpt lat="40.7847" lon="-3.98013">
    <ele>2260.4</ele>
    <time>2018-05-12T09:37:03Z</time>
    <name>Bola del Mundo</name>
  </wpt>
  <wpt lat="40.8157" lon="-3.95761">
    <ele>1825.8</ele>
    <time>2018-05-12T09:39:12Z</time>
    <name>refugio</name>
  </wpt>
  <wpt lat="40.7671" lon="-3.96862">
    <ele>2217.1</ele>
    <time>2018-05-12T09:36:22Z</time>
    <name>Maliciosa</name>
  </wpt>
  <wpt lat="40.7994" lon="-3.93298">
    <ele>2377.3</ele>
    <time>2018-05-12T09:37:34Z</time>
    <name>Hierro Mayor</name>
  </wpt>
  <wpt lat="40.796" lon="-3.93847">
    <ele>2370</ele>
    <time>2018-05-12T09:38:35Z</time>
    <name>Hierro Menor</name>
  </wpt>
  <wpt lat="40.7847" lon="-3.98013">
    <ele>2260.4</ele>
    <time>2018-05-12T09:37:03Z</time>
    <name>Bola del Mundo</name>
  </wpt>
  <trk>
    <src>https://www.youtrack.es</src>
    <link href="https://www.youtrack.es/ruta/24264-dia-2">
      <text>YouTrack.es</text>
    </link>
    <trkseg>
      <trkpt lat="40.849792" lon="-3.95638">
        <ele>2418.268</ele>
        <time>2018-06-09T13:23:53Z</time>
      </trkpt>
      <trkpt lat="40.849073" lon="-3.9567">
        <ele>2409.208</ele>
        <time>2018-06-09T13:24:58Z</time>
      </trkpt>
      <trkpt lat="40.848836" lon="-3.95696">
        <ele>2402.694</ele>
        <time>2018-06-09T13:25:16Z</time>
      </trkpt>
      <trkpt lat="40.848461" lon="-3.957573">
        <ele>2390.088</ele>
        <time>2018-06-09T13:25:58Z</time>
      </trkpt>
      <trkpt lat="40.848252" lon="-3.957666">
        <ele>2385.514</ele>
        <time>2018-06-09T13:26:16Z</time>
      </trkpt>
      <trkpt lat="40.845635" lon="-3.959884">
        <ele>2324.129</ele>
        <time>2018-06-09T13:30:59Z</time>
      </trkpt>
      <trkpt lat="40.845347" lon="-3.960178">
        <ele>2317.926</ele>
        <time>2018-06-09T13:31:23Z</time>
      </trkpt>
      <trkpt lat="40.844997" lon="-3.960378">
        <ele>2309.908</ele>
        <time>2018-06-09T13:31:43Z</time>
      </trkpt>
      <trkpt lat="40.844143" lon="-3.961418">
        <ele>2291.814</ele>
        <time>2018-06-09T13:32:39Z</time>
      </trkpt>
      <trkpt lat="40.843511" lon="-3.962223">
        <ele>2283.62</ele>
        <time>2018-06-09T13:33:13Z</time>
      </trkpt>
      <trkpt lat="40.842936" lon="-3.962835">
        <ele>2278.973</ele>
        <time>2018-06-09T13:33:41Z</time>
      </trkpt>
      <trkpt lat="40.842757" lon="-3.963313">
        <ele>2272.608</ele>
        <time>2018-06-09T13:33:58Z</time>
      </trkpt>
      <trkpt lat="40.842462" lon="-3.963577">
        <ele>2265.324</ele>
        <time>2018-06-09T13:34:14Z</time>
      </trkpt>
      <trkpt lat="40.841627" lon="-3.963549">
        <ele>2259.181</ele>
        <time>2018-06-09T13:34:52Z</time>
      </trkpt>
      <trkpt lat="40.840565" lon="-3.964053">
        <ele>2264.441</ele>
        <time>2018-06-09T13:35:53Z</time>
      </trkpt>
      <trkpt lat="40.839793" lon="-3.964549">
        <ele>2264.914</ele>
        <time>2018-06-09T13:36:42Z</time>
      </trkpt>
      <trkpt lat="40.839099" lon="-3.964846">
        <ele>2261.808</ele>
        <time>2018-06-09T13:37:17Z</time>
      </trkpt>
      <trkpt lat="40.837933" lon="-3.965356">
        <ele>2253.053</ele>
        <time>2018-06-09T13:38:11Z</time>
      </trkpt>
      <trkpt lat="40.83716" lon="-3.965451">
        <ele>2254.708</ele>
        <time>2018-06-09T13:38:48Z</time>
      </trkpt>
      <trkpt lat="40.836866" lon="-3.965545">
        <ele>2257.38</ele>
        <time>2018-06-09T13:39:08Z</time>
      </trkpt>
      <trkpt lat="40.836421" lon="-3.965597">
        <ele>2261.919</ele>
        <time>2018-06-09T13:39:36Z</time>
      </trkpt>
      <trkpt lat="40.835567" lon="-3.965476">
        <ele>2261.556</ele>
        <time>2018-06-09T13:40:22Z</time>
      </trkpt>
      <trkpt lat="40.835262" lon="-3.965021">
        <ele>2262.324</ele>
        <time>2018-06-09T13:40:45Z</time>
      </trkpt>
      <trkpt lat="40.834553" lon="-3.96488">
        <ele>2254.654</ele>
        <time>2018-06-09T13:41:21Z</time>
      </trkpt>
      <trkpt lat="40.83434" lon="-3.96486">
        <ele>2253.719</ele>
        <time>2018-06-09T13:41:32Z</time>
      </trkpt>
      <trkpt lat="40.834099" lon="-3.964702">
        <ele>2246.608</ele>
        <time>2018-06-09T13:41:48Z</time>
      </trkpt>
      <trkpt lat="40.833769" lon="-3.964878">
        <ele>2240.147</ele>
        <time>2018-06-09T13:42:06Z</time>
      </trkpt>
      <trkpt lat="40.833049" lon="-3.96575">
        <ele>2220.008</ele>
        <time>2018-06-09T13:43:03Z</time>
      </trkpt>
      <trkpt lat="40.832846" lon="-3.966074">
        <ele>2213.146</ele>
        <time>2018-06-09T13:43:23Z</time>
      </trkpt>
      <trkpt lat="40.832669" lon="-3.965288">
        <ele>2206.55</ele>
        <time>2018-06-09T13:43:53Z</time>
      </trkpt>
      <trkpt lat="40.832409" lon="-3.965716">
        <ele>2199.337</ele>
        <time>2018-06-09T13:44:14Z</time>
      </trkpt>
      <trkpt lat="40.832157" lon="-3.966301">
        <ele>2191.081</ele>
        <time>2018-06-09T13:44:40Z</time>
      </trkpt>
      <trkpt lat="40.832051" lon="-3.966199">
        <ele>2188.848</ele>
        <time>2018-06-09T13:44:49Z</time>
      </trkpt>
      <trkpt lat="40.831929" lon="-3.965091">
        <ele>2175.62</ele>
        <time>2018-06-09T13:45:29Z</time>
      </trkpt>
      <trkpt lat="40.832021" lon="-3.964313">
        <ele>2171.714</ele>
        <time>2018-06-09T13:45:56Z</time>
      </trkpt>
      <trkpt lat="40.832037" lon="-3.963679">
        <ele>2165.642</ele>
        <time>2018-06-09T13:46:19Z</time>
      </trkpt>
      <trkpt lat="40.831533" lon="-3.964274">
        <ele>2150.766</ele>
        <time>2018-06-09T13:46:59Z</time>
      </trkpt>
      <trkpt lat="40.831811" lon="-3.962569">
        <ele>2141.91</ele>
        <time>2018-06-09T13:47:59Z</time>
      </trkpt>
      <trkpt lat="40.831898" lon="-3.96191">
        <ele>2134.73</ele>
        <time>2018-06-09T13:48:26Z</time>
      </trkpt>
      <trkpt lat="40.832036" lon="-3.961531">
        <ele>2131.05</ele>
        <time>2018-06-09T13:48:39Z</time>
      </trkpt>
      <trkpt lat="40.831581" lon="-3.961615">
        <ele>2121.422</ele>
        <time>2018-06-09T13:49:02Z</time>
      </trkpt>
      <trkpt lat="40.83098" lon="-3.962001">
        <ele>2110.977</ele>
        <time>2018-06-09T13:49:36Z</time>
      </trkpt>
      <trkpt lat="40.830844" lon="-3.962071">
        <ele>2107.764</ele>
        <time>2018-06-09T13:49:46Z</time>
      </trkpt>
      <trkpt lat="40.830931" lon="-3.961314">
        <ele>2098.495</ele>
        <time>2018-06-09T13:50:17Z</time>
      </trkpt>
      <trkpt lat="40.831722" lon="-3.959763">
        <ele>2085.654</ele>
        <time>2018-06-09T13:51:25Z</time>
      </trkpt>
      <trkpt lat="40.831578" lon="-3.959478">
        <ele>2080.524</ele>
        <time>2018-06-09T13:51:40Z</time>
      </trkpt>
      <trkpt lat="40.831321" lon="-3.959523">
        <ele>2074.465</ele>
        <time>2018-06-09T13:51:56Z</time>
      </trkpt>
      <trkpt lat="40.831251" lon="-3.959221">
        <ele>2068.797</ele>
        <time>2018-06-09T13:52:09Z</time>
      </trkpt>
      <trkpt lat="40.830962" lon="-3.959349">
        <ele>2061.434</ele>
        <time>2018-06-09T13:52:28Z</time>
      </trkpt>
      <trkpt lat="40.830887" lon="-3.958835">
        <ele>2051.462</ele>
        <time>2018-06-09T13:52:56Z</time>
      </trkpt>
      <trkpt lat="40.830406" lon="-3.958956">
        <ele>2041.324</ele>
        <time>2018-06-09T13:53:33Z</time>
      </trkpt>
      <trkpt lat="40.83042" lon="-3.959114">
        <ele>2045.617</ele>
        <time>2018-06-09T13:53:52Z</time>
      </trkpt>
      <trkpt lat="40.830335" lon="-3.959372">
        <ele>2045.32</ele>
        <time>2018-06-09T13:55:42Z</time>
      </trkpt>
      <trkpt lat="40.830419" lon="-3.959184">
        <ele>2045.165</ele>
        <time>2018-06-09T13:57:47Z</time>
      </trkpt>
      <trkpt lat="40.830392" lon="-3.958963">
        <ele>2042.409</ele>
        <time>2018-06-09T13:58:06Z</time>
      </trkpt>
      <trkpt lat="40.830219" lon="-3.958827">
        <ele>2036.011</ele>
        <time>2018-06-09T13:58:26Z</time>
      </trkpt>
      <trkpt lat="40.830197" lon="-3.958343">
        <ele>2026.389</ele>
        <time>2018-06-09T13:58:54Z</time>
      </trkpt>
      <trkpt lat="40.829509" lon="-3.958476">
        <ele>2011.913</ele>
        <time>2018-06-09T13:59:36Z</time>
      </trkpt>
      <trkpt lat="40.828998" lon="-3.957681">
        <ele>1992.943</ele>
        <time>2018-06-09T14:00:20Z</time>
      </trkpt>
      <trkpt lat="40.829097" lon="-3.956705">
        <ele>1984.198</ele>
        <time>2018-06-09T14:00:51Z</time>
      </trkpt>
      <trkpt lat="40.829077" lon="-3.956093">
        <ele>1976.48</ele>
        <time>2018-06-09T14:01:10Z</time>
      </trkpt>
      <trkpt lat="40.829178" lon="-3.955603">
        <ele>1967.797</ele>
        <time>2018-06-09T14:01:30Z</time>
      </trkpt>
      <trkpt lat="40.828994" lon="-3.955214">
        <ele>1958.038</ele>
        <time>2018-06-09T14:01:44Z</time>
      </trkpt>
      <trkpt lat="40.82867" lon="-3.955038">
        <ele>1950.362</ele>
        <time>2018-06-09T14:01:57Z</time>
      </trkpt>
      <trkpt lat="40.827972" lon="-3.955465">
        <ele>1946.042</ele>
        <time>2018-06-09T14:02:30Z</time>
      </trkpt>
      <trkpt lat="40.827413" lon="-3.95654">
        <ele>1938.159</ele>
        <time>2018-06-09T14:03:19Z</time>
      </trkpt>
      <trkpt lat="40.82662" lon="-3.95754">
        <ele>1923.543</ele>
        <time>2018-06-09T14:04:00Z</time>
      </trkpt>
      <trkpt lat="40.826294" lon="-3.958238">
        <ele>1916.246</ele>
        <time>2018-06-09T14:04:24Z</time>
      </trkpt>
      <trkpt lat="40.82621" lon="-3.958209">
        <ele>1914.416</ele>
        <time>2018-06-09T14:04:30Z</time>
      </trkpt>
      <trkpt lat="40.826109" lon="-3.957403">
        <ele>1906.781</ele>
        <time>2018-06-09T14:04:54Z</time>
      </trkpt>
      <trkpt lat="40.826092" lon="-3.957103">
        <ele>1903.859</ele>
        <time>2018-06-09T14:05:03Z</time>
      </trkpt>
      <trkpt lat="40.825962" lon="-3.957185">
        <ele>1900.266</ele>
        <time>2018-06-09T14:05:10Z</time>
      </trkpt>
      <trkpt lat="40.825198" lon="-3.959916">
        <ele>1873.779</ele>
        <time>2018-06-09T14:06:36Z</time>
      </trkpt>
      <trkpt lat="40.824974" lon="-3.961307">
        <ele>1861.224</ele>
        <time>2018-06-09T14:07:24Z</time>
      </trkpt>
      <trkpt lat="40.824847" lon="-3.961136">
        <ele>1860.382</ele>
        <time>2018-06-09T14:07:56Z</time>
      </trkpt>
      <trkpt lat="40.824634" lon="-3.961288">
        <ele>1856.385</ele>
        <time>2018-06-09T14:08:04Z</time>
      </trkpt>
      <trkpt lat="40.824459" lon="-3.961824">
        <ele>1851.75</ele>
        <time>2018-06-09T14:08:20Z</time>
      </trkpt>
      <trkpt lat="40.824212" lon="-3.961862">
        <ele>1848.928</ele>
        <time>2018-06-09T14:08:28Z</time>
      </trkpt>
      <trkpt lat="40.823929" lon="-3.961627">
        <ele>1844.288</ele>
        <time>2018-06-09T14:08:40Z</time>
      </trkpt>
      <trkpt lat="40.823677" lon="-3.961762">
        <ele>1841.638</ele>
        <time>2018-06-09T14:08:50Z</time>
      </trkpt>
      <trkpt lat="40.823561" lon="-3.962244">
        <ele>1839.334</ele>
        <time>2018-06-09T14:09:05Z</time>
      </trkpt>
      <trkpt lat="40.823603" lon="-3.961994">
        <ele>1839.592</ele>
        <time>2018-06-09T14:09:17Z</time>
      </trkpt>
      <trkpt lat="40.823447" lon="-3.961852">
        <ele>1835.708</ele>
        <time>2018-06-09T14:09:38Z</time>
      </trkpt>
      <trkpt lat="40.823259" lon="-3.960598">
        <ele>1821.319</ele>
        <time>2018-05-09T07:40:44Z</time>
      </trkpt>
      <trkpt lat="40.82316" lon="-3.961271">
        <ele>1825.632</ele>
        <time>2018-05-09T07:42:04Z</time>
      </trkpt>
      <trkpt lat="40.823198" lon="-3.961931">
        <ele>1826.656</ele>
        <time>2018-05-09T07:42:52Z</time>
      </trkpt>
      <trkpt lat="40.822998" lon="-3.961716">
        <ele>1828.543</ele>
        <time>2018-05-09T07:43:16Z</time>
      </trkpt>
      <trkpt lat="40.822854" lon="-3.96156">
        <ele>1832.835</ele>
        <time>2018-05-09T07:44:52Z</time>
      </trkpt>
      <trkpt lat="40.822869" lon="-3.961481">
        <ele>1819.408</ele>
        <time>2018-05-09T07:45:48Z</time>
      </trkpt>
      <trkpt lat="40.82237" lon="-3.960538">
        <ele>1826.123</ele>
        <time>2018-05-09T07:47:40Z</time>
      </trkpt>
      <trkpt lat="40.821614" lon="-3.959808">
        <ele>1834.86</ele>
        <time>2018-05-09T07:48:52Z</time>
      </trkpt>
      <trkpt lat="40.821221" lon="-3.959794">
        <ele>1834.892</ele>
        <time>2018-05-09T07:49:24Z</time>
      </trkpt>
      <trkpt lat="40.820391" lon="-3.960383">
        <ele>1835.74</ele>
        <time>2018-05-09T07:51:00Z</time>
      </trkpt>
      <trkpt lat="40.81967" lon="-3.960848">
        <ele>1825.62</ele>
        <time>2018-05-09T07:52:12Z</time>
      </trkpt>
      <trkpt lat="40.819188" lon="-3.960649">
        <ele>1828.578</ele>
        <time>2018-05-09T07:52:52Z</time>
      </trkpt>
      <trkpt lat="40.818577" lon="-3.960296">
        <ele>1827.121</ele>
        <time>2018-05-09T07:53:48Z</time>
      </trkpt>
      <trkpt lat="40.818173" lon="-3.960432">
        <ele>1817.962</ele>
        <time>2018-05-09T07:54:28Z</time>
      </trkpt>
      <trkpt lat="40.817785" lon="-3.960665">
        <ele>1819.41</ele>
        <time>2018-05-09T07:55:00Z</time>
      </trkpt>
      <trkpt lat="40.817109" lon="-3.960264">
        <ele>1820.872</ele>
        <time>2018-05-09T07:56:28Z</time>
      </trkpt>
      <trkpt lat="40.81664" lon="-3.959924">
        <ele>1821.321</ele>
        <time>2018-05-09T07:57:26Z</time>
      </trkpt>
      <trkpt lat="40.816654" lon="-3.959569">
        <ele>1825.212</ele>
        <time>2018-05-09T07:57:51Z</time>
      </trkpt>
      <trkpt lat="40.815829" lon="-3.958125">
        <ele>1838.192</ele>
        <time>2018-05-09T07:59:59Z</time>
      </trkpt>
      <trkpt lat="40.815708" lon="-3.957637">
        <ele>1829.558</ele>
        <time>2018-05-09T08:00:55Z</time>
      </trkpt>
      <trkpt lat="40.815584" lon="-3.957465">
        <ele>1828.026</ele>
        <time>2018-05-09T08:01:27Z</time>
      </trkpt>
      <trkpt lat="40.815208" lon="-3.957597">
        <ele>1822.829</ele>
        <time>2018-05-09T08:02:07Z</time>
      </trkpt>
      <trkpt lat="40.815036" lon="-3.957926">
        <ele>1807.412</ele>
        <time>2018-05-09T08:02:47Z</time>
      </trkpt>
      <trkpt lat="40.814801" lon="-3.959013">
        <ele>1793.442</ele>
        <time>2018-05-09T08:04:15Z</time>
      </trkpt>
      <trkpt lat="40.814698" lon="-3.959053">
        <ele>1792.588</ele>
        <time>2018-05-09T08:04:31Z</time>
      </trkpt>
      <trkpt lat="40.814586" lon="-3.958787">
        <ele>1784.32</ele>
        <time>2018-05-09T08:05:03Z</time>
      </trkpt>
      <trkpt lat="40.814482" lon="-3.958827">
        <ele>1782.954</ele>
        <time>2018-05-09T08:05:19Z</time>
      </trkpt>
      <trkpt lat="40.814287" lon="-3.959483">
        <ele>1777.124</ele>
        <time>2018-05-09T08:06:31Z</time>
      </trkpt>
      <trkpt lat="40.814269" lon="-3.95963">
        <ele>1780.008</ele>
        <time>2018-05-09T08:06:47Z</time>
      </trkpt>
      <trkpt lat="40.813955" lon="-3.95937">
        <ele>1769.433</ele>
        <time>2018-05-09T08:07:35Z</time>
      </trkpt>
      <trkpt lat="40.813811" lon="-3.959392">
        <ele>1770.417</ele>
        <time>2018-05-09T08:08:15Z</time>
      </trkpt>
      <trkpt lat="40.813583" lon="-3.95868">
        <ele>1766.053</ele>
        <time>2018-05-09T08:09:11Z</time>
      </trkpt>
      <trkpt lat="40.813504" lon="-3.958456">
        <ele>1772.841</ele>
        <time>2018-05-09T08:10:23Z</time>
      </trkpt>
      <trkpt lat="40.813525" lon="-3.958429">
        <ele>1778.581</ele>
        <time>2018-05-09T08:11:11Z</time>
      </trkpt>
      <trkpt lat="40.813173" lon="-3.957835">
        <ele>1756.91</ele>
        <time>2018-05-09T08:13:35Z</time>
      </trkpt>
      <trkpt lat="40.812983" lon="-3.957111">
        <ele>1764.608</ele>
        <time>2018-05-09T08:14:47Z</time>
      </trkpt>
      <trkpt lat="40.813041" lon="-3.956704">
        <ele>1778.553</ele>
        <time>2018-05-09T08:15:35Z</time>
      </trkpt>
      <trkpt lat="40.81313" lon="-3.955874">
        <ele>1782.908</ele>
        <time>2018-05-09T08:16:23Z</time>
      </trkpt>
      <trkpt lat="40.813303" lon="-3.954591">
        <ele>1780.514</ele>
        <time>2018-05-09T08:17:51Z</time>
      </trkpt>
      <trkpt lat="40.813475" lon="-3.954116">
        <ele>1788.165</ele>
        <time>2018-05-09T08:18:31Z</time>
      </trkpt>
      <trkpt lat="40.813428" lon="-3.953">
        <ele>1791.562</ele>
        <time>2018-05-09T08:19:59Z</time>
      </trkpt>
      <trkpt lat="40.813287" lon="-3.952199">
        <ele>1810.317</ele>
        <time>2018-05-09T08:21:03Z</time>
      </trkpt>
      <trkpt lat="40.813254" lon="-3.951833">
        <ele>1825.249</ele>
        <time>2018-05-09T08:22:31Z</time>
      </trkpt>
      <trkpt lat="40.812792" lon="-3.952033">
        <ele>1813.628</ele>
        <time>2018-05-09T08:23:19Z</time>
      </trkpt>
      <trkpt lat="40.811496" lon="-3.952104">
        <ele>1803.084</ele>
        <time>2018-05-09T08:25:19Z</time>
      </trkpt>
      <trkpt lat="40.810773" lon="-3.951808">
        <ele>1800.273</ele>
        <time>2018-05-09T08:26:23Z</time>
      </trkpt>
      <trkpt lat="40.810166" lon="-3.951731">
        <ele>1795.407</ele>
        <time>2018-05-09T08:27:19Z</time>
      </trkpt>
      <trkpt lat="40.809522" lon="-3.951409">
        <ele>1803.52</ele>
        <time>2018-05-09T08:28:15Z</time>
      </trkpt>
      <trkpt lat="40.808934" lon="-3.951296">
        <ele>1792.008</ele>
        <time>2018-05-09T08:29:11Z</time>
      </trkpt>
      <trkpt lat="40.808352" lon="-3.951041">
        <ele>1782.91</ele>
        <time>2018-05-09T08:29:59Z</time>
      </trkpt>
      <trkpt lat="40.807632" lon="-3.951052">
        <ele>1781.971</ele>
        <time>2018-05-09T08:31:11Z</time>
      </trkpt>
      <trkpt lat="40.807362" lon="-3.951171">
        <ele>1776.638</ele>
        <time>2018-05-09T08:31:35Z</time>
      </trkpt>
      <trkpt lat="40.807096" lon="-3.950976">
        <ele>1766.543</ele>
        <time>2018-05-09T08:32:07Z</time>
      </trkpt>
      <trkpt lat="40.807071" lon="-3.950673">
        <ele>1760.319</ele>
        <time>2018-05-09T08:32:47Z</time>
      </trkpt>
      <trkpt lat="40.807241" lon="-3.950195">
        <ele>1747.317</ele>
        <time>2018-05-09T08:33:51Z</time>
      </trkpt>
      <trkpt lat="40.807616" lon="-3.948367">
        <ele>1757.911</ele>
        <time>2018-05-09T08:37:03Z</time>
      </trkpt>
      <trkpt lat="40.807735" lon="-3.9479">
        <ele>1755.949</ele>
        <time>2018-05-09T08:37:35Z</time>
      </trkpt>
      <trkpt lat="40.808063" lon="-3.947418">
        <ele>1757.928</ele>
        <time>2018-05-09T08:38:15Z</time>
      </trkpt>
      <trkpt lat="40.808435" lon="-3.946145">
        <ele>1753.553</ele>
        <time>2018-05-09T08:39:43Z</time>
      </trkpt>
      <trkpt lat="40.808464" lon="-3.945582">
        <ele>1750.727</ele>
        <time>2018-05-09T08:40:31Z</time>
      </trkpt>
      <trkpt lat="40.808232" lon="-3.94468">
        <ele>1766.026</ele>
        <time>2018-05-09T08:42:23Z</time>
      </trkpt>
      <trkpt lat="40.808171" lon="-3.94456">
        <ele>1767.073</ele>
        <time>2018-05-09T08:42:47Z</time>
      </trkpt>
      <trkpt lat="40.808044" lon="-3.944224">
        <ele>1779.508</ele>
        <time>2018-05-09T08:43:35Z</time>
      </trkpt>
      <trkpt lat="40.80785" lon="-3.943741">
        <ele>1788.654</ele>
        <time>2018-05-09T08:45:35Z</time>
      </trkpt>
      <trkpt lat="40.807719" lon="-3.943471">
        <ele>1801.122</ele>
        <time>2018-05-09T08:46:39Z</time>
      </trkpt>
      <trkpt lat="40.807838" lon="-3.943316">
        <ele>1803.528</ele>
        <time>2018-05-09T08:47:19Z</time>
      </trkpt>
      <trkpt lat="40.80776" lon="-3.943147">
        <ele>1798.264</ele>
        <time>2018-05-09T08:47:59Z</time>
      </trkpt>
      <trkpt lat="40.807525" lon="-3.942978">
        <ele>1807.957</ele>
        <time>2018-05-09T08:49:19Z</time>
      </trkpt>
      <trkpt lat="40.807065" lon="-3.942384">
        <ele>1828.57</ele>
        <time>2018-05-09T08:51:19Z</time>
      </trkpt>
      <trkpt lat="40.806889" lon="-3.94222">
        <ele>1836.782</ele>
        <time>2018-05-09T08:52:07Z</time>
      </trkpt>
      <trkpt lat="40.806542" lon="-3.941649">
        <ele>1850.114</ele>
        <time>2018-05-09T08:54:15Z</time>
      </trkpt>
      <trkpt lat="40.806325" lon="-3.941231">
        <ele>1858.87</ele>
        <time>2018-05-09T08:55:51Z</time>
      </trkpt>
      <trkpt lat="40.806179" lon="-3.941046">
        <ele>1865.021</ele>
        <time>2018-05-09T08:57:03Z</time>
      </trkpt>
      <trkpt lat="40.80607" lon="-3.940913">
        <ele>1872.351</ele>
        <time>2018-05-09T08:58:15Z</time>
      </trkpt>
      <trkpt lat="40.805454" lon="-3.940724">
        <ele>1897.708</ele>
        <time>2018-05-09T09:02:47Z</time>
      </trkpt>
      <trkpt lat="40.805397" lon="-3.940773">
        <ele>1902.597</ele>
        <time>2018-05-09T09:05:35Z</time>
      </trkpt>
      <trkpt lat="40.805053" lon="-3.94076">
        <ele>1910.269</ele>
        <time>2018-05-09T09:09:19Z</time>
      </trkpt>
      <trkpt lat="40.804286" lon="-3.940051">
        <ele>1938.176</ele>
        <time>2018-05-09T09:14:55Z</time>
      </trkpt>
      <trkpt lat="40.803492" lon="-3.939613">
        <ele>1962.179</ele>
        <time>2018-05-09T09:19:14Z</time>
      </trkpt>
      <trkpt lat="40.80343" lon="-3.93957">
        <ele>1969.878</ele>
        <time>2018-05-09T09:22:58Z</time>
      </trkpt>
      <trkpt lat="40.803454" lon="-3.939555">
        <ele>1969.854</ele>
        <time>2018-05-09T09:25:38Z</time>
      </trkpt>
      <trkpt lat="40.803463" lon="-3.939592">
        <ele>1970.839</ele>
        <time>2018-05-09T09:27:14Z</time>
      </trkpt>
      <trkpt lat="40.802973" lon="-3.939181">
        <ele>2003.022</ele>
        <time>2018-05-09T09:32:02Z</time>
      </trkpt>
      <trkpt lat="40.802681" lon="-3.938855">
        <ele>2027.593</ele>
        <time>2018-05-09T09:35:22Z</time>
      </trkpt>
      <trkpt lat="40.802392" lon="-3.938538">
        <ele>2052.082</ele>
        <time>2018-05-09T09:38:18Z</time>
      </trkpt>
      <trkpt lat="40.80223" lon="-3.938081">
        <ele>2066.961</ele>
        <time>2018-05-09T09:40:58Z</time>
      </trkpt>
      <trkpt lat="40.802256" lon="-3.937429">
        <ele>2083.739</ele>
        <time>2018-05-09T09:43:46Z</time>
      </trkpt>
      <trkpt lat="40.802187" lon="-3.937246">
        <ele>2097.732</ele>
        <time>2018-05-09T09:45:22Z</time>
      </trkpt>
      <trkpt lat="40.802136" lon="-3.937207">
        <ele>2106.829</ele>
        <time>2018-05-09T09:46:42Z</time>
      </trkpt>
      <trkpt lat="40.802203" lon="-3.93686">
        <ele>2124.649</ele>
        <time>2018-05-09T09:48:42Z</time>
      </trkpt>
      <trkpt lat="40.802084" lon="-3.936577">
        <ele>2136.194</ele>
        <time>2018-05-09T09:50:58Z</time>
      </trkpt>
      <trkpt lat="40.801983" lon="-3.936525">
        <ele>2143.421</ele>
        <time>2018-05-09T09:52:10Z</time>
      </trkpt>
      <trkpt lat="40.801948" lon="-3.936093">
        <ele>2168.32</ele>
        <time>2018-05-09T09:55:30Z</time>
      </trkpt>
      <trkpt lat="40.801798" lon="-3.93573">
        <ele>2193.802</ele>
        <time>2018-05-09T10:00:10Z</time>
      </trkpt>
      <trkpt lat="40.801523" lon="-3.93533">
        <ele>2238.008</ele>
        <time>2018-05-09T10:05:14Z</time>
      </trkpt>
      <trkpt lat="40.801351" lon="-3.935222">
        <ele>2242.415</ele>
        <time>2018-05-09T10:12:10Z</time>
      </trkpt>
      <trkpt lat="40.801302" lon="-3.934987">
        <ele>2251.066</ele>
        <time>2018-05-09T10:13:54Z</time>
      </trkpt>
      <trkpt lat="40.801129" lon="-3.934756">
        <ele>2260.608</ele>
        <time>2018-05-09T10:14:50Z</time>
      </trkpt>
      <trkpt lat="40.801055" lon="-3.934371">
        <ele>2274.128</ele>
        <time>2018-05-09T10:16:10Z</time>
      </trkpt>
      <trkpt lat="40.80045" lon="-3.934018">
        <ele>2307.378</ele>
        <time>2018-05-09T10:19:46Z</time>
      </trkpt>
      <trkpt lat="40.800373" lon="-3.933834">
        <ele>2317.443</ele>
        <time>2018-05-09T10:20:58Z</time>
      </trkpt>
      <trkpt lat="40.800026" lon="-3.93361">
        <ele>2337.17</ele>
        <time>2018-05-09T10:22:58Z</time>
      </trkpt>
      <trkpt lat="40.799822" lon="-3.933199">
        <ele>2354.878</ele>
        <time>2018-05-09T10:24:58Z</time>
      </trkpt>
      <trkpt lat="40.799852" lon="-3.932577">
        <ele>2366.994</ele>
        <time>2018-05-09T10:26:26Z</time>
      </trkpt>
      <trkpt lat="40.799704" lon="-3.932344">
        <ele>2369.781</ele>
        <time>2018-05-09T10:26:50Z</time>
      </trkpt>
      <trkpt lat="40.799084" lon="-3.931928">
        <ele>2360.127</ele>
        <time>2018-05-09T10:30:10Z</time>
      </trkpt>
      <trkpt lat="40.799431" lon="-3.932899">
        <ele>2370.208</ele>
        <time>2018-05-09T10:32:26Z</time>
      </trkpt>
      <trkpt lat="40.799242" lon="-3.932753">
        <ele>2366.921</ele>
        <time>2018-05-09T10:56:34Z</time>
      </trkpt>
      <trkpt lat="40.798881" lon="-3.933165">
        <ele>2361.14</ele>
        <time>2018-05-09T10:57:22Z</time>
      </trkpt>
      <trkpt lat="40.798441" lon="-3.934141">
        <ele>2351.551</ele>
        <time>2018-05-09T10:58:50Z</time>
      </trkpt>
      <trkpt lat="40.797675" lon="-3.934755">
        <ele>2329.884</ele>
        <time>2018-05-09T11:00:34Z</time>
      </trkpt>
      <trkpt lat="40.797449" lon="-3.935744">
        <ele>2316.912</ele>
        <time>2018-05-09T11:05:30Z</time>
      </trkpt>
      <trkpt lat="40.797511" lon="-3.935738">
        <ele>2315.931</ele>
        <time>2018-05-09T11:05:46Z</time>
      </trkpt>
      <trkpt lat="40.797258" lon="-3.936003">
        <ele>2323.627</ele>
        <time>2018-05-09T11:06:26Z</time>
      </trkpt>
      <trkpt lat="40.796793" lon="-3.93682">
        <ele>2337.521</ele>
        <time>2018-05-09T11:12:18Z</time>
      </trkpt>
      <trkpt lat="40.796427" lon="-3.937411">
        <ele>2359.65</ele>
        <time>2018-05-09T11:14:42Z</time>
      </trkpt>
      <trkpt lat="40.79596" lon="-3.938495">
        <ele>2362.576</ele>
        <time>2018-05-09T11:18:26Z</time>
      </trkpt>
      <trkpt lat="40.795759" lon="-3.938563">
        <ele>2354.851</ele>
        <time>2018-05-09T11:19:06Z</time>
      </trkpt>
      <trkpt lat="40.795515" lon="-3.938907">
        <ele>2342.868</ele>
        <time>2018-05-09T11:19:46Z</time>
      </trkpt>
      <trkpt lat="40.795651" lon="-3.939482">
        <ele>2329.455</ele>
        <time>2018-05-09T11:20:42Z</time>
      </trkpt>
      <trkpt lat="40.795568" lon="-3.939783">
        <ele>2321.746</ele>
        <time>2018-05-09T11:21:14Z</time>
      </trkpt>
      <trkpt lat="40.795435" lon="-3.939911">
        <ele>2314.961</ele>
        <time>2018-05-09T11:21:46Z</time>
      </trkpt>
      <trkpt lat="40.795455" lon="-3.940125">
        <ele>2310.179</ele>
        <time>2018-05-09T11:22:10Z</time>
      </trkpt>
      <trkpt lat="40.795521" lon="-3.940563">
        <ele>2299.122</ele>
        <time>2018-05-09T11:22:50Z</time>
      </trkpt>
      <trkpt lat="40.795816" lon="-3.941811">
        <ele>2283.292</ele>
        <time>2018-05-09T11:24:58Z</time>
      </trkpt>
      <trkpt lat="40.795648" lon="-3.942305">
        <ele>2278.947</ele>
        <time>2018-05-09T11:25:30Z</time>
      </trkpt>
      <trkpt lat="40.79551" lon="-3.943094">
        <ele>2269.351</ele>
        <time>2018-05-09T11:27:14Z</time>
      </trkpt>
      <trkpt lat="40.795603" lon="-3.94416">
        <ele>2250.569</ele>
        <time>2018-05-09T11:29:30Z</time>
      </trkpt>
      <trkpt lat="40.795621" lon="-3.945326">
        <ele>2238.067</ele>
        <time>2018-05-09T11:30:50Z</time>
      </trkpt>
      <trkpt lat="40.79552" lon="-3.94645">
        <ele>2228.986</ele>
        <time>2018-05-09T11:32:02Z</time>
      </trkpt>
      <trkpt lat="40.794908" lon="-3.94854">
        <ele>2203.417</ele>
        <time>2018-05-09T11:34:42Z</time>
      </trkpt>
      <trkpt lat="40.794822" lon="-3.949029">
        <ele>2194.36</ele>
        <time>2018-05-09T11:35:38Z</time>
      </trkpt>
      <trkpt lat="40.794693" lon="-3.949621">
        <ele>2182.817</ele>
        <time>2018-05-09T11:36:50Z</time>
      </trkpt>
      <trkpt lat="40.794574" lon="-3.95055">
        <ele>2171.208</ele>
        <time>2018-05-09T11:38:02Z</time>
      </trkpt>
      <trkpt lat="40.794537" lon="-3.951279">
        <ele>2161.654</ele>
        <time>2018-05-09T11:38:50Z</time>
      </trkpt>
      <trkpt lat="40.794732" lon="-3.954824">
        <ele>2161.621</ele>
        <time>2018-05-09T11:42:58Z</time>
      </trkpt>
      <trkpt lat="40.794793" lon="-3.955753">
        <ele>2174.621</ele>
        <time>2018-05-09T11:44:58Z</time>
      </trkpt>
      <trkpt lat="40.794875" lon="-3.956671">
        <ele>2185.256</ele>
        <time>2018-05-09T11:46:18Z</time>
      </trkpt>
      <trkpt lat="40.794802" lon="-3.957345">
        <ele>2196.255</ele>
        <time>2018-05-09T11:48:10Z</time>
      </trkpt>
      <trkpt lat="40.794878" lon="-3.957734">
        <ele>2205.817</ele>
        <time>2018-05-09T11:49:06Z</time>
      </trkpt>
      <trkpt lat="40.794863" lon="-3.958288">
        <ele>2215.598</ele>
        <time>2018-05-09T11:50:18Z</time>
      </trkpt>
      <trkpt lat="40.794952" lon="-3.958547">
        <ele>2219.81</ele>
        <time>2018-05-09T11:50:58Z</time>
      </trkpt>
      <trkpt lat="40.794896" lon="-3.959082">
        <ele>2215.592</ele>
        <time>2018-05-09T11:52:52Z</time>
      </trkpt>
      <trkpt lat="40.79493" lon="-3.958971">
        <ele>2227.943</ele>
        <time>2018-05-09T11:53:17Z</time>
      </trkpt>
      <trkpt lat="40.79485" lon="-3.959721">
        <ele>2257.364</ele>
        <time>2018-05-09T11:55:09Z</time>
      </trkpt>
      <trkpt lat="40.794727" lon="-3.960217">
        <ele>2271.767</ele>
        <time>2018-05-09T11:56:13Z</time>
      </trkpt>
      <trkpt lat="40.794575" lon="-3.960369">
        <ele>2276.044</ele>
        <time>2018-05-09T11:56:37Z</time>
      </trkpt>
      <trkpt lat="40.794485" lon="-3.960608">
        <ele>2274.619</ele>
        <time>2018-05-09T11:57:17Z</time>
      </trkpt>
      <trkpt lat="40.793518" lon="-3.961716">
        <ele>2264.03</ele>
        <time>2018-05-09T11:59:17Z</time>
      </trkpt>
      <trkpt lat="40.792719" lon="-3.962686">
        <ele>2269.892</ele>
        <time>2018-05-09T12:02:45Z</time>
      </trkpt>
      <trkpt lat="40.792335" lon="-3.962797">
        <ele>2264.018</ele>
        <time>2018-05-09T12:03:41Z</time>
      </trkpt>
      <trkpt lat="40.791825" lon="-3.963228">
        <ele>2262.138</ele>
        <time>2018-05-09T12:04:37Z</time>
      </trkpt>
      <trkpt lat="40.791424" lon="-3.964148">
        <ele>2254.978</ele>
        <time>2018-05-09T12:06:13Z</time>
      </trkpt>
      <trkpt lat="40.791467" lon="-3.964915">
        <ele>2244.829</ele>
        <time>2018-05-09T12:07:09Z</time>
      </trkpt>
      <trkpt lat="40.791323" lon="-3.96587">
        <ele>2221.211</ele>
        <time>2018-05-09T12:08:29Z</time>
      </trkpt>
      <trkpt lat="40.791395" lon="-3.96611">
        <ele>2215.998</ele>
        <time>2018-05-09T12:08:53Z</time>
      </trkpt>
      <trkpt lat="40.791103" lon="-3.967711">
        <ele>2189.552</ele>
        <time>2018-05-09T12:10:37Z</time>
      </trkpt>
      <trkpt lat="40.790419" lon="-3.969313">
        <ele>2160.727</ele>
        <time>2018-05-09T12:12:29Z</time>
      </trkpt>
      <trkpt lat="40.78935" lon="-3.970605">
        <ele>2154.437</ele>
        <time>2018-05-09T12:14:37Z</time>
      </trkpt>
      <trkpt lat="40.788993" lon="-3.971021">
        <ele>2151.061</ele>
        <time>2018-05-09T12:15:25Z</time>
      </trkpt>
      <trkpt lat="40.788165" lon="-3.971715">
        <ele>2149.682</ele>
        <time>2018-05-09T12:17:01Z</time>
      </trkpt>
      <trkpt lat="40.787359" lon="-3.972306">
        <ele>2146.787</ele>
        <time>2018-05-09T12:18:45Z</time>
      </trkpt>
      <trkpt lat="40.786631" lon="-3.972831">
        <ele>2138.522</ele>
        <time>2018-05-09T12:20:13Z</time>
      </trkpt>
      <trkpt lat="40.786134" lon="-3.973229">
        <ele>2136.624</ele>
        <time>2018-05-09T12:23:09Z</time>
      </trkpt>
      <trkpt lat="40.785968" lon="-3.973596">
        <ele>2137.627</ele>
        <time>2018-05-09T12:23:41Z</time>
      </trkpt>
      <trkpt lat="40.785323" lon="-3.974236">
        <ele>2132.384</ele>
        <time>2018-05-09T12:25:25Z</time>
      </trkpt>
      <trkpt lat="40.785158" lon="-3.974085">
        <ele>2125.685</ele>
        <time>2018-05-09T12:25:57Z</time>
      </trkpt>
      <trkpt lat="40.784682" lon="-3.974339">
        <ele>2128.924</ele>
        <time>2018-05-09T12:27:17Z</time>
      </trkpt>
      <trkpt lat="40.783802" lon="-3.974475">
        <ele>2140.561</ele>
        <time>2018-05-09T12:30:05Z</time>
      </trkpt>
      <trkpt lat="40.782585" lon="-3.974143">
        <ele>2132.359</ele>
        <time>2018-05-09T12:33:33Z</time>
      </trkpt>
      <trkpt lat="40.782363" lon="-3.974025">
        <ele>2132.808</ele>
        <time>2018-05-09T12:34:13Z</time>
      </trkpt>
      <trkpt lat="40.782372" lon="-3.974093">
        <ele>2132.848</ele>
        <time>2018-05-09T12:34:29Z</time>
      </trkpt>
      <trkpt lat="40.781408" lon="-3.973549">
        <ele>2128.555</ele>
        <time>2018-05-09T12:36:45Z</time>
      </trkpt>
      <trkpt lat="40.781006" lon="-3.973146">
        <ele>2123.621</ele>
        <time>2018-05-09T12:37:33Z</time>
      </trkpt>
      <trkpt lat="40.780511" lon="-3.972854">
        <ele>2122.286</ele>
        <time>2018-05-09T12:38:29Z</time>
      </trkpt>
      <trkpt lat="40.779997" lon="-3.972581">
        <ele>2121.25</ele>
        <time>2018-05-09T12:39:17Z</time>
      </trkpt>
      <trkpt lat="40.778481" lon="-3.972649">
        <ele>2114.043</ele>
        <time>2018-05-09T12:41:33Z</time>
      </trkpt>
      <trkpt lat="40.777885" lon="-3.972404">
        <ele>2115.593</ele>
        <time>2018-05-09T12:44:21Z</time>
      </trkpt>
      <trkpt lat="40.777401" lon="-3.972151">
        <ele>2114.069</ele>
        <time>2018-05-09T12:45:01Z</time>
      </trkpt>
      <trkpt lat="40.777092" lon="-3.972129">
        <ele>2114.01</ele>
        <time>2018-05-09T12:45:41Z</time>
      </trkpt>
      <trkpt lat="40.776397" lon="-3.971932">
        <ele>2103.016</ele>
        <time>2018-05-09T12:46:37Z</time>
      </trkpt>
      <trkpt lat="40.774402" lon="-3.972055">
        <ele>2069.398</ele>
        <time>2018-05-09T12:49:17Z</time>
      </trkpt>
      <trkpt lat="40.773791" lon="-3.971912">
        <ele>2070.826</ele>
        <time>2018-05-09T12:50:37Z</time>
      </trkpt>
      <trkpt lat="40.773484" lon="-3.971758">
        <ele>2070.829</ele>
        <time>2018-05-09T12:51:09Z</time>
      </trkpt>
      <trkpt lat="40.772488" lon="-3.969571">
        <ele>2078.014</ele>
        <time>2018-05-09T12:54:13Z</time>
      </trkpt>
      <trkpt lat="40.77227" lon="-3.968986">
        <ele>2077.043</ele>
        <time>2018-05-09T12:55:33Z</time>
      </trkpt>
      <trkpt lat="40.771833" lon="-3.968122">
        <ele>2084.734</ele>
        <time>2018-05-09T12:57:09Z</time>
      </trkpt>
      <trkpt lat="40.771607" lon="-3.967588">
        <ele>2091.719</ele>
        <time>2018-05-15T05:46:40Z</time>
      </trkpt>
      <trkpt lat="40.770478" lon="-3.96625">
        <ele>2136.06</ele>
        <time>2018-05-15T05:51:40Z</time>
      </trkpt>
      <trkpt lat="40.7704" lon="-3.966141">
        <ele>2140.235</ele>
        <time>2018-05-15T05:52:20Z</time>
      </trkpt>
      <trkpt lat="40.770451" lon="-3.96619">
        <ele>2137.061</ele>
        <time>2018-05-15T05:52:40Z</time>
      </trkpt>
      <trkpt lat="40.770261" lon="-3.965954">
        <ele>2140.574</ele>
        <time>2018-05-09T13:08:23Z</time>
      </trkpt>
      <trkpt lat="40.770115" lon="-3.966235">
        <ele>2142.923</ele>
        <time>2018-05-09T13:09:19Z</time>
      </trkpt>
      <trkpt lat="40.770053" lon="-3.966317">
        <ele>2151.08</ele>
        <time>2018-05-09T13:09:59Z</time>
      </trkpt>
      <trkpt lat="40.769771" lon="-3.966406">
        <ele>2153.921</ele>
        <time>2018-05-09T13:10:55Z</time>
      </trkpt>
      <trkpt lat="40.769308" lon="-3.966619">
        <ele>2167.964</ele>
        <time>2018-05-09T13:11:59Z</time>
      </trkpt>
      <trkpt lat="40.768672" lon="-3.966459">
        <ele>2179.961</ele>
        <time>2018-05-09T13:13:19Z</time>
      </trkpt>
      <trkpt lat="40.76862" lon="-3.966445">
        <ele>2184.281</ele>
        <time>2018-05-09T13:14:23Z</time>
      </trkpt>
      <trkpt lat="40.768313" lon="-3.967023">
        <ele>2191.941</ele>
        <time>2018-05-09T13:15:35Z</time>
      </trkpt>
      <trkpt lat="40.768215" lon="-3.967163">
        <ele>2191.487</ele>
        <time>2018-05-09T13:15:51Z</time>
      </trkpt>
      <trkpt lat="40.768112" lon="-3.967538">
        <ele>2198.15</ele>
        <time>2018-05-09T13:16:23Z</time>
      </trkpt>
      <trkpt lat="40.767926" lon="-3.967674">
        <ele>2201.008</ele>
        <time>2018-05-09T13:17:03Z</time>
      </trkpt>
      <trkpt lat="40.767802" lon="-3.968176">
        <ele>2202.51</ele>
        <time>2018-05-09T13:17:43Z</time>
      </trkpt>
      <trkpt lat="40.767513" lon="-3.96847">
        <ele>2210.659</ele>
        <time>2018-05-09T13:18:23Z</time>
      </trkpt>
      <trkpt lat="40.767275" lon="-3.968583">
        <ele>2215.983</ele>
        <time>2018-05-09T13:19:03Z</time>
      </trkpt>
      <trkpt lat="40.767149" lon="-3.968539">
        <ele>2219.838</ele>
        <time>2018-05-09T13:25:19Z</time>
      </trkpt>
      <trkpt lat="40.767095" lon="-3.968541">
        <ele>2232.324</ele>
        <time>2018-05-09T13:57:51Z</time>
      </trkpt>
      <trkpt lat="40.767119" lon="-3.968596">
        <ele>2231.316</ele>
        <time>2018-05-09T14:07:11Z</time>
      </trkpt>
      <trkpt lat="40.767127" lon="-3.968542">
        <ele>2224.123</ele>
        <time>2018-05-09T14:13:19Z</time>
      </trkpt>
      <trkpt lat="40.767131" lon="-3.968571">
        <ele>2167.445</ele>
        <time>2020-09-05T10:35:28Z</time>
      </trkpt>
      <trkpt lat="40.767411659594146" lon="-3.9686608314514165">
        <ele>2158.374</ele>
        <time>2020-09-05T10:37:11Z</time>
      </trkpt>
      <trkpt lat="40.767695" lon="-3.968756">
        <ele>2149.145</ele>
        <time>2020-09-05T10:38:18Z</time>
      </trkpt>
      <trkpt lat="40.768172" lon="-3.969205">
        <ele>2146.724</ele>
        <time>2020-09-05T10:38:49Z</time>
      </trkpt>
      <trkpt lat="40.768325" lon="-3.969486">
        <ele>2142.439</ele>
        <time>2020-09-05T10:39:38Z</time>
      </trkpt>
      <trkpt lat="40.768535" lon="-3.969845">
        <ele>2131.324</ele>
        <time>2020-09-05T10:41:44Z</time>
      </trkpt>
      <trkpt lat="40.769135" lon="-3.970289">
        <ele>2124.108</ele>
        <time>2020-09-05T10:42:50Z</time>
      </trkpt>
      <trkpt lat="40.769527" lon="-3.970589">
        <ele>2117.414</ele>
        <time>2020-09-05T10:43:29Z</time>
      </trkpt>
      <trkpt lat="40.769772" lon="-3.970839">
        <ele>2105.408</ele>
        <time>2020-09-05T10:45:07Z</time>
      </trkpt>
      <trkpt lat="40.770395" lon="-3.97201">
        <ele>2100.617</ele>
        <time>2020-09-05T10:45:34Z</time>
      </trkpt>
      <trkpt lat="40.770649" lon="-3.972174">
        <ele>2082.811</ele>
        <time>2020-09-05T10:46:40Z</time>
      </trkpt>
      <trkpt lat="40.771237" lon="-3.972063">
        <ele>2070.352</ele>
        <time>2020-09-05T10:47:30Z</time>
      </trkpt>
      <trkpt lat="40.771493" lon="-3.971563">
        <ele>2064.52</ele>
        <time>2020-09-05T10:47:55Z</time>
      </trkpt>
      <trkpt lat="40.771626" lon="-3.97131">
        <ele>2053.59</ele>
        <time>2020-09-05T10:48:32Z</time>
      </trkpt>
      <trkpt lat="40.771958" lon="-3.971354">
        <ele>2028.086</ele>
        <time>2020-09-05T10:50:35Z</time>
      </trkpt>
      <trkpt lat="40.773301" lon="-3.971628">
        <ele>2024.682</ele>
        <time>2020-09-05T10:51:36Z</time>
      </trkpt>
      <trkpt lat="40.774" lon="-3.972008">
        <ele>2024.615</ele>
        <time>2020-09-05T10:54:33Z</time>
      </trkpt>
      <trkpt lat="40.774185" lon="-3.971941">
        <ele>2006.889</ele>
        <time>2020-09-05T10:56:39Z</time>
      </trkpt>
      <trkpt lat="40.774452" lon="-3.970544">
        <ele>2002.048</ele>
        <time>2020-09-05T10:57:12Z</time>
      </trkpt>
      <trkpt lat="40.774534" lon="-3.970169">
        <ele>1994.826</ele>
        <time>2020-09-05T10:57:44Z</time>
      </trkpt>
      <trkpt lat="40.77474" lon="-3.969869">
        <ele>1978.076</ele>
        <time>2020-09-05T10:59:56Z</time>
      </trkpt>
      <trkpt lat="40.775062" lon="-3.968936">
        <ele>1961.788</ele>
        <time>2020-09-05T11:01:44Z</time>
      </trkpt>
      <trkpt lat="40.775255" lon="-3.967583">
        <ele>1952.09</ele>
        <time>2020-09-05T11:02:29Z</time>
      </trkpt>
      <trkpt lat="40.775382" lon="-3.967082">
        <ele>1940.023</ele>
        <time>2020-09-05T11:03:41Z</time>
      </trkpt>
      <trkpt lat="40.77526" lon="-3.966354">
        <ele>1939.634</ele>
        <time>2020-09-05T11:03:50Z</time>
      </trkpt>
      <trkpt lat="40.775204" lon="-3.966276">
        <ele>1931.973</ele>
        <time>2020-09-05T11:04:32Z</time>
      </trkpt>
      <trkpt lat="40.775363" lon="-3.965811">
        <ele>1922.258</ele>
        <time>2020-09-05T11:05:18Z</time>
      </trkpt>
      <trkpt lat="40.775416" lon="-3.965302">
        <ele>1919.428</ele>
        <time>2020-09-05T11:05:34Z</time>
      </trkpt>
      <trkpt lat="40.775454" lon="-3.965167">
        <ele>1909.339</ele>
        <time>2020-09-05T11:06:22Z</time>
      </trkpt>
      <trkpt lat="40.775488" lon="-3.964461">
        <ele>1899.257</ele>
        <time>2020-09-05T11:07:35Z</time>
      </trkpt>
      <trkpt lat="40.775691" lon="-3.963784">
        <ele>1890.592</ele>
        <time>2020-09-05T11:08:18Z</time>
      </trkpt>
      <trkpt lat="40.775873" lon="-3.963404">
        <ele>1884.308</ele>
        <time>2020-09-05T11:08:50Z</time>
      </trkpt>
      <trkpt lat="40.775871" lon="-3.963109">
        <ele>1872.315</ele>
        <time>2020-09-05T11:10:31Z</time>
      </trkpt>
      <trkpt lat="40.776288" lon="-3.962672">
        <ele>1866.069</ele>
        <time>2020-09-05T11:10:52Z</time>
      </trkpt>
      <trkpt lat="40.776411" lon="-3.962551">
        <ele>1859.378</ele>
        <time>2020-09-05T11:11:28Z</time>
      </trkpt>
      <trkpt lat="40.776712" lon="-3.962566">
        <ele>1855.02</ele>
        <time>2020-09-05T11:22:17Z</time>
      </trkpt>
      <trkpt lat="40.776434" lon="-3.961622">
        <ele>1845.322</ele>
        <time>2020-09-05T11:24:29Z</time>
      </trkpt>
      <trkpt lat="40.776162" lon="-3.960655">
        <ele>1847.794</ele>
        <time>2020-09-05T11:25:11Z</time>
      </trkpt>
      <trkpt lat="40.776363" lon="-3.960074">
        <ele>1842.576</ele>
        <time>2020-09-05T11:26:00Z</time>
      </trkpt>
      <trkpt lat="40.776449" lon="-3.959355">
        <ele>1837.215</ele>
        <time>2020-09-05T11:26:24Z</time>
      </trkpt>
      <trkpt lat="40.776487" lon="-3.959017">
        <ele>1834.318</ele>
        <time>2020-09-05T11:26:40Z</time>
      </trkpt>
      <trkpt lat="40.776568" lon="-3.958795">
        <ele>1823.235</ele>
        <time>2020-09-05T11:27:17Z</time>
      </trkpt>
      <trkpt lat="40.776473" lon="-3.958187">
        <ele>1811.765</ele>
        <time>2020-09-05T11:29:10Z</time>
      </trkpt>
      <trkpt lat="40.776496" lon="-3.957693">
        <ele>1810.335</ele>
        <time>2020-09-05T11:29:20Z</time>
      </trkpt>
      <trkpt lat="40.776426" lon="-3.957595">
        <ele>1805.986</ele>
        <time>2020-09-05T11:29:42Z</time>
      </trkpt>
      <trkpt lat="40.776426" lon="-3.957407">
        <ele>1798.729</ele>
        <time>2020-09-05T11:30:37Z</time>
      </trkpt>
      <trkpt lat="40.776381" lon="-3.956642">
        <ele>1791.553</ele>
        <time>2020-09-05T11:31:24Z</time>
      </trkpt>
      <trkpt lat="40.776035" lon="-3.956096">
        <ele>1788.679</ele>
        <time>2020-09-05T11:31:56Z</time>
      </trkpt>
      <trkpt lat="40.775781" lon="-3.955765">
        <ele>1776.133</ele>
        <time>2020-09-05T11:33:39Z</time>
      </trkpt>
      <trkpt lat="40.775049" lon="-3.955412">
        <ele>1762.772</ele>
        <time>2020-09-05T11:36:29Z</time>
      </trkpt>
      <trkpt lat="40.773663" lon="-3.955218">
        <ele>1755.055</ele>
        <time>2020-09-05T11:37:52Z</time>
      </trkpt>
      <trkpt lat="40.772807" lon="-3.955278">
        <ele>1752.17</ele>
        <time>2020-09-05T11:38:29Z</time>
      </trkpt>
      <trkpt lat="40.772506" lon="-3.955416">
        <ele>1750.236</ele>
        <time>2020-09-05T11:39:02Z</time>
      </trkpt>
      <trkpt lat="40.772223" lon="-3.955358">
        <ele>1743.998</ele>
        <time>2020-09-05T11:40:26Z</time>
      </trkpt>
      <trkpt lat="40.771458" lon="-3.955426">
        <ele>1740.65</ele>
        <time>2020-09-05T11:41:07Z</time>
      </trkpt>
      <trkpt lat="40.771063" lon="-3.955484">
        <ele>1738.608</ele>
        <time>2020-09-05T11:42:42Z</time>
      </trkpt>
      <trkpt lat="40.770053" lon="-3.954973">
        <ele>1730.049</ele>
        <time>2020-09-05T11:43:45Z</time>
      </trkpt>
      <trkpt lat="40.769502" lon="-3.954693">
        <ele>1715.608</ele>
        <time>2020-09-05T11:45:15Z</time>
      </trkpt>
      <trkpt lat="40.769186" lon="-3.954015">
        <ele>1712.243</ele>
        <time>2020-09-05T11:46:07Z</time>
      </trkpt>
      <trkpt lat="40.769147" lon="-3.953354">
        <ele>1705.097</ele>
        <time>2020-09-05T11:47:44Z</time>
      </trkpt>
      <trkpt lat="40.768861" lon="-3.952169">
        <ele>1695.497</ele>
        <time>2020-09-05T11:49:06Z</time>
      </trkpt>
      <trkpt lat="40.768536" lon="-3.951412">
        <ele>1692.058</ele>
        <time>2020-09-05T11:49:49Z</time>
      </trkpt>
      <trkpt lat="40.768483" lon="-3.95098">
        <ele>1690.117</ele>
        <time>2020-09-05T11:53:46Z</time>
      </trkpt>
      <trkpt lat="40.76849" lon="-3.950483">
        <ele>1688.203</ele>
        <time>2020-09-05T11:56:51Z</time>
      </trkpt>
      <trkpt lat="40.768361" lon="-3.951058">
        <ele>1688.252</ele>
        <time>2020-09-05T12:38:24Z</time>
      </trkpt>
      <trkpt lat="40.768322" lon="-3.951153">
        <ele>1689.183</ele>
        <time>2020-09-05T12:39:29Z</time>
      </trkpt>
      <trkpt lat="40.76845" lon="-3.950515">
        <ele>1686.249</ele>
        <time>2020-09-05T12:41:33Z</time>
      </trkpt>
      <trkpt lat="40.768515" lon="-3.94929">
        <ele>1672.394</ele>
        <time>2020-09-05T12:43:34Z</time>
      </trkpt>
      <trkpt lat="40.768303" lon="-3.94834">
        <ele>1663.25</ele>
        <time>2020-09-05T12:45:58Z</time>
      </trkpt>
      <trkpt lat="40.768438" lon="-3.947189">
        <ele>1667.016</ele>
        <time>2020-09-05T12:47:41Z</time>
      </trkpt>
      <trkpt lat="40.768764" lon="-3.946358">
        <ele>1664.108</ele>
        <time>2020-09-05T12:48:24Z</time>
      </trkpt>
      <trkpt lat="40.768895" lon="-3.945859">
        <ele>1659.881</ele>
        <time>2020-09-05T12:50:02Z</time>
      </trkpt>
      <trkpt lat="40.769147" lon="-3.945134">
        <ele>1654.581</ele>
        <time>2020-09-05T12:50:51Z</time>
      </trkpt>
      <trkpt lat="40.769201" lon="-3.944777">
        <ele>1655.008</ele>
        <time>2020-09-05T12:51:43Z</time>
      </trkpt>
      <trkpt lat="40.769473" lon="-3.944364">
        <ele>1638.28</ele>
        <time>2020-09-05T12:53:55Z</time>
      </trkpt>
      <trkpt lat="40.769781" lon="-3.943345">
        <ele>1633.411</ele>
        <time>2020-09-05T12:55:26Z</time>
      </trkpt>
      <trkpt lat="40.770144" lon="-3.942718">
        <ele>1623.364</ele>
        <time>2020-09-05T12:56:41Z</time>
      </trkpt>
      <trkpt lat="40.770743" lon="-3.942426">
        <ele>1617.049</ele>
        <time>2020-09-05T12:58:05Z</time>
      </trkpt>
      <trkpt lat="40.771382" lon="-3.941886">
        <ele>1609.398</ele>
        <time>2020-09-05T12:58:39Z</time>
      </trkpt>
      <trkpt lat="40.77156" lon="-3.941689">
        <ele>1598.337</ele>
        <time>2020-09-05T12:59:58Z</time>
      </trkpt>
      <trkpt lat="40.77198" lon="-3.941453">
        <ele>1586.342</ele>
        <time>2020-09-05T13:00:54Z</time>
      </trkpt>
      <trkpt lat="40.772149" lon="-3.941058">
        <ele>1576.235</ele>
        <time>2020-09-05T13:01:59Z</time>
      </trkpt>
      <trkpt lat="40.772686" lon="-3.940673">
        <ele>1575.774</ele>
        <time>2020-09-05T13:02:31Z</time>
      </trkpt>
      <trkpt lat="40.772891" lon="-3.940616">
        <ele>1581.082</ele>
        <time>2020-09-05T13:03:31Z</time>
      </trkpt>
      <trkpt lat="40.773103" lon="-3.940085">
        <ele>1577.156</ele>
        <time>2020-09-05T13:04:40Z</time>
      </trkpt>
      <trkpt lat="40.773074" lon="-3.939221">
        <ele>1573.869</ele>
        <time>2020-09-05T13:05:35Z</time>
      </trkpt>
      <trkpt lat="40.773056" lon="-3.938528">
        <ele>1565.108</ele>
        <time>2020-09-05T13:06:27Z</time>
      </trkpt>
      <trkpt lat="40.772845" lon="-3.93801">
        <ele>1555.093</ele>
        <time>2020-09-05T13:07:52Z</time>
      </trkpt>
      <trkpt lat="40.772819" lon="-3.936894">
        <ele>1552.184</ele>
        <time>2020-09-05T13:08:20Z</time>
      </trkpt>
      <trkpt lat="40.772892" lon="-3.936572">
        <ele>1542.017</ele>
        <time>2020-09-05T13:10:14Z</time>
      </trkpt>
      <trkpt lat="40.773033" lon="-3.935176">
        <ele>1540.12</ele>
        <time>2020-09-05T13:10:48Z</time>
      </trkpt>
      <trkpt lat="40.773077" lon="-3.934799">
        <ele>1536.869</ele>
        <time>2020-09-05T13:11:34Z</time>
      </trkpt>
      <trkpt lat="40.773123" lon="-3.934161">
        <ele>1537.278</ele>
        <time>2020-09-05T13:12:20Z</time>
      </trkpt>
      <trkpt lat="40.773234" lon="-3.933548">
        <ele>1533.452</ele>
        <time>2020-09-05T13:12:59Z</time>
      </trkpt>
      <trkpt lat="40.773255" lon="-3.933015">
        <ele>1519.583</ele>
        <time>2020-09-05T13:14:48Z</time>
      </trkpt>
      <trkpt lat="40.773306" lon="-3.931775">
        <ele>1517.121</ele>
        <time>2020-09-05T13:15:36Z</time>
      </trkpt>
      <trkpt lat="40.773571" lon="-3.931321">
        <ele>1516.147</ele>
        <time>2020-09-05T13:15:57Z</time>
      </trkpt>
      <trkpt lat="40.773669" lon="-3.931095">
        <ele>1512.222</ele>
        <time>2020-09-05T13:16:55Z</time>
      </trkpt>
      <trkpt lat="40.774075" lon="-3.930376">
        <ele>1503.641</ele>
        <time>2020-09-05T13:18:13Z</time>
      </trkpt>
      <trkpt lat="40.774413" lon="-3.929697">
        <ele>1496.963</ele>
        <time>2020-09-05T13:18:44Z</time>
      </trkpt>
      <trkpt lat="40.77444" lon="-3.929422">
        <ele>1486.883</ele>
        <time>2020-09-05T13:20:05Z</time>
      </trkpt>
      <trkpt lat="40.77479" lon="-3.928459">
        <ele>1483.951</ele>
        <time>2020-09-05T13:21:46Z</time>
      </trkpt>
      <trkpt lat="40.775155" lon="-3.927135">
        <ele>1470.487</ele>
        <time>2020-09-05T13:23:09Z</time>
      </trkpt>
      <trkpt lat="40.775161" lon="-3.926352">
        <ele>1469.013</ele>
        <time>2020-09-05T13:23:26Z</time>
      </trkpt>
      <trkpt lat="40.775149" lon="-3.92629">
        <ele>1463.729</ele>
        <time>2020-09-05T13:24:01Z</time>
      </trkpt>
      <trkpt lat="40.774977" lon="-3.926476">
        <ele>1458.926</ele>
        <time>2020-09-05T13:24:30Z</time>
      </trkpt>
      <trkpt lat="40.774966" lon="-3.926295">
        <ele>1448.843</ele>
        <time>2020-09-05T13:25:31Z</time>
      </trkpt>
      <trkpt lat="40.774737" lon="-3.926539">
        <ele>1445.099</ele>
        <time>2020-09-05T13:27:38Z</time>
      </trkpt>
      <trkpt lat="40.774672" lon="-3.926546">
        <ele>1451.724</ele>
        <time>2020-09-05T13:32:33Z</time>
      </trkpt>
      <trkpt lat="40.774822" lon="-3.926398">
        <ele>1445.951</ele>
        <time>2020-09-05T13:33:36Z</time>
      </trkpt>
      <trkpt lat="40.774953" lon="-3.925909">
        <ele>1433.496</ele>
        <time>2020-09-05T13:34:38Z</time>
      </trkpt>
      <trkpt lat="40.7749" lon="-3.925345">
        <ele>1419.044</ele>
        <time>2020-09-05T13:35:51Z</time>
      </trkpt>
      <trkpt lat="40.774622" lon="-3.924746">
        <ele>1400.342</ele>
        <time>2020-09-05T13:37:34Z</time>
      </trkpt>
      <trkpt lat="40.774333" lon="-3.923692">
        <ele>1384.455</ele>
        <time>2020-09-05T13:38:31Z</time>
      </trkpt>
      <trkpt lat="40.774131" lon="-3.923289">
        <ele>1380.123</ele>
        <time>2020-09-05T13:39:02Z</time>
      </trkpt>
      <trkpt lat="40.774153" lon="-3.922953">
        <ele>1353.621</ele>
        <time>2020-09-05T13:41:22Z</time>
      </trkpt>
      <trkpt lat="40.774066" lon="-3.921166">
        <ele>1347.418</ele>
        <time>2020-09-05T13:42:01Z</time>
      </trkpt>
      <trkpt lat="40.773834" lon="-3.920733">
        <ele>1339.244</ele>
        <time>2020-09-05T13:42:49Z</time>
      </trkpt>
      <trkpt lat="40.773664" lon="-3.920287">
        <ele>1334.486</ele>
        <time>2020-09-05T13:43:17Z</time>
      </trkpt>
      <trkpt lat="40.773549" lon="-3.920575">
        <ele>1325.842</ele>
        <time>2020-09-05T13:43:56Z</time>
      </trkpt>
      <trkpt lat="40.77337" lon="-3.920202">
        <ele>1321.908</ele>
        <time>2020-09-05T13:44:13Z</time>
      </trkpt>
      <trkpt lat="40.773285" lon="-3.920368">
        <ele>1318.113</ele>
        <time>2020-09-05T13:44:34Z</time>
      </trkpt>
      <trkpt lat="40.77319" lon="-3.920175">
        <ele>1308.011</ele>
        <time>2020-09-05T13:45:31Z</time>
      </trkpt>
      <trkpt lat="40.773064" lon="-3.919671">
        <ele>1306.073</ele>
        <time>2020-09-05T13:45:41Z</time>
      </trkpt>
      <trkpt lat="40.773032" lon="-3.919683">
        <ele>1301.208</ele>
        <time>2020-09-05T13:46:20Z</time>
      </trkpt>
      <trkpt lat="40.772985" lon="-3.91924">
        <ele>1286.344</ele>
        <time>2020-09-05T13:47:23Z</time>
      </trkpt>
      <trkpt lat="40.772807" lon="-3.91887">
        <ele>1284.982</ele>
        <time>2020-09-05T13:47:57Z</time>
      </trkpt>
      <trkpt lat="40.772712" lon="-3.918977">
        <ele>1287.376</ele>
        <time>2020-09-05T13:53:47Z</time>
      </trkpt>
      <trkpt lat="40.772606" lon="-3.919041">
        <ele>1287.361</ele>
        <time>2020-09-05T13:55:09Z</time>
      </trkpt>
      <trkpt lat="40.772446" lon="-3.918687">
        <ele>1280.694</ele>
        <time>2020-09-05T13:56:21Z</time>
      </trkpt>
      <trkpt lat="40.772501" lon="-3.917995">
        <ele>1278.257</ele>
        <time>2020-09-05T13:56:59Z</time>
      </trkpt>
      <trkpt lat="40.772602" lon="-3.917513">
        <ele>1263.712</ele>
        <time>2020-09-05T13:58:40Z</time>
      </trkpt>
      <trkpt lat="40.772675" lon="-3.916029">
        <ele>1260.408</ele>
        <time>2020-09-05T13:59:23Z</time>
      </trkpt>
      <trkpt lat="40.772564" lon="-3.915457">
        <ele>1257.008</ele>
        <time>2020-09-05T14:00:28Z</time>
      </trkpt>
      <trkpt lat="40.772605" lon="-3.91461">
        <ele>1251.795</ele>
        <time>2020-09-05T14:01:59Z</time>
      </trkpt>
      <trkpt lat="40.772353" lon="-3.913664">
        <ele>1247.994</ele>
        <time>2020-09-05T14:02:31Z</time>
      </trkpt>
      <trkpt lat="40.772201" lon="-3.913322">
        <ele>1240.723</ele>
        <time>2020-09-05T14:03:27Z</time>
      </trkpt>
      <trkpt lat="40.771776" lon="-3.912892">
        <ele>1231.51</ele>
        <time>2020-09-05T14:04:49Z</time>
      </trkpt>
      <trkpt lat="40.771366" lon="-3.912087">
        <ele>1220.023</ele>
        <time>2020-09-05T14:06:07Z</time>
      </trkpt>
      <trkpt lat="40.771152" lon="-3.911195">
        <ele>1218.683</ele>
        <time>2020-09-05T14:06:50Z</time>
      </trkpt>
      <trkpt lat="40.771031" lon="-3.910904">
        <ele>1217.15</ele>
        <time>2020-09-05T14:07:48Z</time>
      </trkpt>
      <trkpt lat="40.770668" lon="-3.910336">
        <ele>1211.805</ele>
        <time>2020-09-05T14:10:39Z</time>
      </trkpt>
      <trkpt lat="40.768876" lon="-3.909042">
        <ele>1206.548</ele>
        <time>2020-09-05T14:12:11Z</time>
      </trkpt>
      <trkpt lat="40.767735" lon="-3.908934">
        <ele>1204.689</ele>
        <time>2020-09-05T14:12:32Z</time>
      </trkpt>
      <trkpt lat="40.767461" lon="-3.909064">
        <ele>1195.589</ele>
        <time>2020-09-05T14:14:58Z</time>
      </trkpt>
      <trkpt lat="40.765616" lon="-3.908477">
        <ele>1194.592</ele>
        <time>2020-09-05T14:15:35Z</time>
      </trkpt>
      <trkpt lat="40.765115" lon="-3.908493">
        <ele>1201.785</ele>
        <time>2020-09-05T14:16:27Z</time>
      </trkpt>
      <trkpt lat="40.764591" lon="-3.908548">
        <ele>1208.547</ele>
        <time>2020-09-05T14:17:35Z</time>
      </trkpt>
      <trkpt lat="40.763847" lon="-3.908168">
        <ele>1208.556</ele>
        <time>2020-09-05T14:18:35Z</time>
      </trkpt>
      <trkpt lat="40.763358" lon="-3.907307">
        <ele>1209.015</ele>
        <time>2020-09-05T14:19:13Z</time>
      </trkpt>
      <trkpt lat="40.762922" lon="-3.907145">
        <ele>1202.708</ele>
        <time>2020-09-05T14:20:11Z</time>
      </trkpt>
      <trkpt lat="40.762291" lon="-3.907658">
        <ele>1199.344</ele>
        <time>2020-09-05T14:20:54Z</time>
      </trkpt>
      <trkpt lat="40.761788" lon="-3.907781">
        <ele>1196.593</ele>
        <time>2020-09-05T14:21:29Z</time>
      </trkpt>
      <trkpt lat="40.761345" lon="-3.90789">
        <ele>1189.264</ele>
        <time>2020-09-05T14:22:28Z</time>
      </trkpt>
      <trkpt lat="40.760825" lon="-3.908367">
        <ele>1183.021</ele>
        <time>2020-09-05T14:23:04Z</time>
      </trkpt>
      <trkpt lat="40.760566" lon="-3.908212">
        <ele>1176.737</ele>
        <time>2020-09-05T14:23:45Z</time>
      </trkpt>
      <trkpt lat="40.760759" lon="-3.907565">
        <ele>1170.026</ele>
        <time>2020-09-05T14:25:07Z</time>
      </trkpt>
      <trkpt lat="40.761277" lon="-3.906513">
        <ele>1166.24</ele>
        <time>2020-09-05T14:27:07Z</time>
      </trkpt>
      <trkpt lat="40.761692" lon="-3.906062">
        <ele>1160.417</ele>
        <time>2020-09-05T14:27:52Z</time>
      </trkpt>
      <trkpt lat="40.762027" lon="-3.905754">
        <ele>1155.195</ele>
        <time>2020-09-05T14:28:15Z</time>
      </trkpt>
      <trkpt lat="40.761951" lon="-3.905614">
        <ele>1144.518</ele>
        <time>2020-09-05T14:29:23Z</time>
      </trkpt>
      <trkpt lat="40.761174" lon="-3.905623">
        <ele>1137.846</ele>
        <time>2020-09-05T14:30:13Z</time>
      </trkpt>
      <trkpt lat="40.760556" lon="-3.90579">
        <ele>1126.872</ele>
        <time>2020-09-05T14:31:42Z</time>
      </trkpt>
      <trkpt lat="40.759412" lon="-3.905817">
        <ele>1122.008</ele>
        <time>2020-09-05T14:32:31Z</time>
      </trkpt>
      <trkpt lat="40.758837" lon="-3.906181">
        <ele>1116.213</ele>
        <time>2020-09-05T14:33:27Z</time>
      </trkpt>
      <trkpt lat="40.75813" lon="-3.906425">
        <ele>1110.408</ele>
        <time>2020-09-05T14:34:47Z</time>
      </trkpt>
      <trkpt lat="40.757049" lon="-3.906643">
        <ele>1099.483</ele>
        <time>2020-09-05T14:36:15Z</time>
      </trkpt>
      <trkpt lat="40.755859" lon="-3.906512">
        <ele>1096.508</ele>
        <time>2020-09-05T14:37:06Z</time>
      </trkpt>
      <trkpt lat="40.755136" lon="-3.906356">
        <ele>1088.86</ele>
        <time>2020-09-05T14:38:39Z</time>
      </trkpt>
      <trkpt lat="40.753841" lon="-3.906414">
        <ele>1087.808</ele>
        <time>2020-09-05T14:39:33Z</time>
      </trkpt>
      <trkpt lat="40.753188" lon="-3.906085">
        <ele>1086.484</ele>
        <time>2020-09-05T14:40:21Z</time>
      </trkpt>
      <trkpt lat="40.752723" lon="-3.905525">
        <ele>1083.012</ele>
        <time>2020-09-05T14:41:33Z</time>
      </trkpt>
      <trkpt lat="40.752327" lon="-3.904389">
        <ele>1077.223</ele>
        <time>2020-09-05T14:42:45Z</time>
      </trkpt>
      <trkpt lat="40.752423" lon="-3.903093">
        <ele>1074.499</ele>
        <time>2020-09-05T14:44:33Z</time>
      </trkpt>
      <trkpt lat="40.751749" lon="-3.901531">
        <ele>1069.675</ele>
        <time>2020-09-05T14:45:39Z</time>
      </trkpt>
      <trkpt lat="40.75113" lon="-3.900692">
        <ele>1068.634</ele>
        <time>2020-09-05T14:47:29Z</time>
      </trkpt>
      <trkpt lat="40.750373" lon="-3.899087"/>
    </trkseg>
  </trk>
</gpx>
